Time;durP1;ratioP1;P1;durP2;ratioP2;P2;SDS_P1;SDS_P2;PMS_P1;PMS_P2;Temp;Humidity;BMP_temperature;BMP_pressure;BME280_temperature;BME280_humidity;BME280_pressure;Samples;Min_cycle;Max_cycle;Signal;HPM_P1;HPM_P2
2023/01/16 00:02:01;;;;;;;;;;;;;;;25.87;41.78;93242.41;5007330;28;9114;-61
2023/01/16 00:04:33;;;;;;;;;;;;;;;25.90;42.15;93237.84;5018789;28;9177;-62
2023/01/16 00:06:59;;;;;;;;;;;;;;;25.90;41.30;93229.59;5006895;28;10403;-61
2023/01/16 00:09:27;;;;;;;;;;;;;;;25.88;42.28;93219.09;5004956;28;7259;-61
2023/01/16 00:12:02;;;;;;;;;;;;;;;25.91;41.92;93217.28;5022764;28;7963;-61
2023/01/16 00:14:30;;;;;;;;;;;;;;;25.94;42.30;93210.69;5005230;28;7038;-61
2023/01/16 00:16:56;;;;;;;;;;;;;;;25.92;41.36;93207.75;5009652;28;9046;-61
2023/01/16 00:19:25;;;;;;;;;;;;;;;25.95;41.29;93190.84;5008313;28;7375;-61
2023/01/16 00:21:53;;;;;;;;;;;;;;;25.93;41.41;93189.91;5007877;28;9014;-61
2023/01/16 00:24:28;;;;;;;;;;;;;;;25.92;41.83;93186.44;5010287;28;7262;-61
2023/01/16 00:27:03;;;;;;;;;;;;;;;25.89;42.08;93176.50;5009572;28;7074;-61
2023/01/16 00:30:06;;;;;;;;;;;;;;;25.91;41.42;93173.19;5014882;28;7265;-61
2023/01/16 00:32:43;;;;;;;;;;;;;;;25.89;42.10;93176.50;4956921;28;7195;-61
2023/01/16 00:35:10;;;;;;;;;;;;;;;25.88;42.24;93172.25;4956189;28;9133;-61
2023/01/16 00:37:38;;;;;;;;;;;;;;;25.88;42.33;93164.00;4960072;28;7119;-61
2023/01/16 00:40:07;;;;;;;;;;;;;;;25.85;41.74;93162.34;4951341;28;7030;-61
2023/01/16 00:42:35;;;;;;;;;;;;;;;25.85;42.12;93156.81;4968583;28;9016;-61
2023/01/16 00:45:04;;;;;;;;;;;;;;;25.86;42.23;93154.81;4951988;28;7342;-61
2023/01/16 00:47:30;;;;;;;;;;;;;;;25.85;42.07;93148.56;4966032;28;8668;-62
2023/01/16 00:49:59;;;;;;;;;;;;;;;25.84;42.00;93135.31;4951716;28;8517;-61
2023/01/16 00:52:25;;;;;;;;;;;;;;;25.84;41.90;93130.56;4962433;28;7127;-62
2023/01/16 00:54:59;;;;;;;;;;;;;;;25.82;41.89;93127.59;4954881;28;7290;-61
2023/01/16 00:57:25;;;;;;;;;;;;;;;25.84;42.14;93119.53;4955457;28;8584;-61
2023/01/16 01:00:03;;;;;;;;;;;;;;;25.83;42.47;93114.56;4959219;28;9024;-61
2023/01/16 01:02:29;;;;;;;;;;;;;;;25.82;42.41;93102.06;4954025;28;7471;-61
2023/01/16 01:04:56;;;;;;;;;;;;;;;25.83;42.03;93096.03;4945649;28;9162;-61
2023/01/16 01:07:59;;;;;;;;;;;;;;;25.82;41.46;93100.06;4994435;28;7272;-62
2023/01/16 01:10:44;;;;;;;;;;;;;;;25.82;42.16;93089.03;5007308;28;7292;-61
2023/01/16 01:13:25;;;;;;;;;;;;;;;25.81;41.70;93084.09;5009617;28;9701;-62
2023/01/16 01:15:51;;;;;;;;;;;;;;;25.83;41.43;93081.53;5013976;28;7162;-61
2023/01/16 01:18:20;;;;;;;;;;;;;;;25.82;41.69;93078.03;5009221;28;9025;-62
2023/01/16 01:20:47;;;;;;;;;;;;;;;25.82;41.54;93075.28;5009205;28;7208;-61
2023/01/16 01:23:15;;;;;;;;;;;;;;;25.88;41.72;93070.34;5012760;28;7042;-61
2023/01/16 01:25:44;;;;;;;;;;;;;;;25.92;42.21;93068.00;5011989;28;7094;-62
2023/01/16 01:28:29;;;;;;;;;;;;;;;25.91;41.38;93065.75;4996741;28;7250;-61
2023/01/16 01:31:14;;;;;;;;;;;;;;;25.94;42.05;93073.69;5024408;28;6992;-61
2023/01/16 01:33:43;;;;;;;;;;;;;;;25.91;41.86;93063.00;5011541;28;7125;-61
2023/01/16 01:36:13;;;;;;;;;;;;;;;25.95;41.32;93068.91;5013233;28;7032;-61
2023/01/16 01:38:46;;;;;;;;;;;;;;;25.94;41.86;93057.16;5029305;28;9249;-61
2023/01/16 01:41:28;;;;;;;;;;;;;;;25.93;42.05;93044.66;5005165;28;6974;-61
2023/01/16 01:44:42;;;;;;;;;;;;;;;25.92;41.78;93037.69;5012406;28;9217;-62
2023/01/16 01:47:09;;;;;;;;;;;;;;;25.93;41.77;93033.63;4970200;28;9029;-61
2023/01/16 01:49:37;;;;;;;;;;;;;;;25.93;41.60;93025.38;4952606;28;8903;-61
2023/01/16 01:52:07;;;;;;;;;;;;;;;25.93;41.25;93022.63;4966568;28;8768;-62
2023/01/16 01:55:02;;;;;;;;;;;;;;;25.94;42.08;93018.59;4950245;28;7434;-61
2023/01/16 01:57:44;;;;;;;;;;;;;;;25.93;41.26;93006.09;4952181;28;7013;-62
2023/01/16 02:00:41;;;;;;;;;;;;;;;25.95;42.09;93000.75;4963017;28;9401;-62
2023/01/16 02:03:17;;;;;;;;;;;;;;;25.95;41.60;92986.25;4889479;29;7043;-61
2023/01/16 02:05:53;;;;;;;;;;;;;;;25.95;41.77;92984.22;4883217;29;9089;-62
2023/01/16 02:08:20;;;;;;;;;;;;;;;25.96;41.52;92971.19;4885814;29;9062;-62
2023/01/16 02:10:56;;;;;;;;;;;;;;;25.95;41.38;92970.47;4878691;29;7232;-61
2023/01/16 02:13:24;;;;;;;;;;;;;;;25.94;41.33;92957.97;4899182;29;8079;-61
2023/01/16 02:19:34;;;;;;;;;;;;;;;25.94;42.18;92937.97;4911723;29;9389;-61
2023/01/16 02:22:27;;;;;;;;;;;;;;;25.93;41.68;92928.94;4879379;29;7056;-62
2023/01/16 02:25:08;;;;;;;;;;;;;;;25.94;41.92;92919.41;4896645;29;7290;-61
2023/01/16 02:28:11;;;;;;;;;;;;;;;25.93;41.34;92911.69;4896421;29;7046;-61
2023/01/16 02:31:13;;;;;;;;;;;;;;;25.92;41.75;92888.94;4902633;29;8977;-61
2023/01/16 02:34:08;;;;;;;;;;;;;;;25.92;41.71;92888.19;4902641;29;9075;-62
2023/01/16 02:40:41;;;;;;;;;;;;;;;25.92;41.47;92852.38;4884066;29;9077;-61
2023/01/16 02:43:28;;;;;;;;;;;;;;;25.92;41.42;92833.09;4895867;29;7058;-61
2023/01/16 02:46:10;;;;;;;;;;;;;;;25.91;41.01;92837.88;4898282;29;7255;-61
2023/01/16 02:48:50;;;;;;;;;;;;;;;25.88;41.63;92819.66;4895375;29;7029;-61
2023/01/16 02:51:55;;;;;;;;;;;;;;;25.89;41.29;92825.91;4894566;29;7576;-62
2023/01/16 02:54:52;;;;;;;;;;;;;;;25.91;41.98;92815.81;4880858;29;7158;-61
2023/01/16 02:57:43;;;;;;;;;;;;;;;25.93;41.61;92807.75;4887235;29;7343;-61
2023/01/16 03:00:24;;;;;;;;;;;;;;;25.91;42.00;92793.78;4910721;29;8867;-61
2023/01/16 03:02:52;;;;;;;;;;;;;;;25.88;41.20;92778.34;4909197;29;9386;-61
2023/01/16 03:05:20;;;;;;;;;;;;;;;25.88;41.73;92766.63;4912369;29;7157;-61
2023/01/16 03:08:01;;;;;;;;;;;;;;;25.91;41.84;92760.00;4909829;29;8959;-61
2023/01/16 03:10:46;;;;;;;;;;;;;;;25.91;41.33;92748.97;4915440;29;7249;-61
2023/01/16 03:13:17;;;;;;;;;;;;;;;25.91;41.24;92737.97;4897171;29;7708;-61
2023/01/16 03:16:10;;;;;;;;;;;;;;;25.89;41.61;92724.75;4900345;28;8785;-61
2023/01/16 03:18:58;;;;;;;;;;;;;;;25.91;41.51;92718.69;5025304;28;9410;-61
2023/01/16 03:21:52;;;;;;;;;;;;;;;25.92;41.69;92711.91;5018513;28;7256;-61
2023/01/16 03:24:57;;;;;;;;;;;;;;;25.94;41.09;92707.31;5008860;28;8730;-61
2023/01/16 03:27:51;;;;;;;;;;;;;;;25.92;42.01;92704.38;5011486;28;9096;-61
2023/01/16 03:30:43;;;;;;;;;;;;;;;25.92;41.42;92704.38;5012246;28;9326;-61
2023/01/16 03:33:30;;;;;;;;;;;;;;;25.91;41.39;92691.13;5003478;28;7030;-61
2023/01/16 03:36:14;;;;;;;;;;;;;;;25.91;41.93;92675.34;4995288;28;7232;-61
2023/01/16 03:38:50;;;;;;;;;;;;;;;25.91;41.62;92666.34;5003123;28;7038;-61
2023/01/16 03:41:23;;;;;;;;;;;;;;;25.93;41.11;92672.03;5010172;28;9536;-61
2023/01/16 03:43:57;;;;;;;;;;;;;;;25.93;41.59;92670.00;5011523;28;8790;-61
2023/01/16 03:46:30;;;;;;;;;;;;;;;25.90;41.61;92657.34;5015586;28;8656;-61
2023/01/16 03:49:05;;;;;;;;;;;;;;;25.90;41.17;92662.13;5021981;28;9522;-62
2023/01/16 03:51:42;;;;;;;;;;;;;;;25.90;41.01;92649.06;5006338;28;7213;-61
2023/01/16 03:54:43;;;;;;;;;;;;;;;25.91;41.13;92636.78;5026621;28;7280;-61
2023/01/16 03:57:26;;;;;;;;;;;;;;;25.91;41.35;92623.00;5022775;28;9061;-61
2023/01/16 03:59:56;;;;;;;;;;;;;;;25.93;41.53;92620.44;5010549;28;7065;-62
2023/01/16 04:02:40;;;;;;;;;;;;;;;25.94;42.00;92621.91;5007974;28;8729;-61
2023/01/16 04:05:53;;;;;;;;;;;;;;;25.94;41.94;92616.41;5020957;28;7260;-61
2023/01/16 04:08:34;;;;;;;;;;;;;;;25.93;41.53;92606.66;5039642;28;7299;-62
2023/01/16 04:11:03;;;;;;;;;;;;;;;25.93;41.81;92590.13;5031406;28;7198;-62
2023/01/16 04:13:45;;;;;;;;;;;;;;;25.93;41.42;92576.34;5014761;28;9051;-62
2023/01/16 04:16:39;;;;;;;;;;;;;;;25.94;41.16;92572.31;5029835;28;7107;-62
2023/01/16 04:19:21;;;;;;;;;;;;;;;25.92;41.58;92558.38;4948365;28;7275;-62
2023/01/16 04:21:56;;;;;;;;;;;;;;;25.93;40.89;92554.31;4952963;28;8867;-62
2023/01/16 04:24:26;;;;;;;;;;;;;;;25.92;41.53;92541.84;4952105;28;7374;-62
2023/01/16 04:27:02;;;;;;;;;;;;;;;25.94;41.42;92541.28;4952957;28;7287;-61
2023/01/16 04:29:28;;;;;;;;;;;;;;;25.93;40.78;92537.78;4952019;28;7629;-62
2023/01/16 04:31:54;;;;;;;;;;;;;;;25.92;41.47;92519.81;4951981;28;7225;-62
2023/01/16 04:34:22;;;;;;;;;;;;;;;25.94;41.09;92519.25;4933793;29;7276;-62
2023/01/16 04:36:48;;;;;;;;;;;;;;;25.93;40.99;92521.25;4930887;28;9077;-62
2023/01/16 04:39:13;;;;;;;;;;;;;;;25.90;41.64;92500.34;4953513;28;7006;-62
2023/01/16 04:42:13;;;;;;;;;;;;;;;25.90;41.82;92483.81;4953419;28;9098;-62
2023/01/16 04:44:41;;;;;;;;;;;;;;;25.90;40.99;92483.09;4900846;29;8220;-62
2023/01/16 04:47:09;;;;;;;;;;;;;;;25.88;41.56;92469.88;4898568;29;7596;-61
2023/01/16 04:49:35;;;;;;;;;;;;;;;25.91;41.39;92468.03;4876174;29;7416;-62
2023/01/16 04:52:04;;;;;;;;;;;;;;;25.91;40.77;92460.50;4878862;29;7325;-61
2023/01/16 04:54:51;;;;;;;;;;;;;;;25.93;40.75;92455.16;4878879;29;7284;-62
2023/01/16 04:57:17;;;;;;;;;;;;;;;25.89;41.25;92438.28;4937562;28;7436;-62
2023/01/16 04:59:44;;;;;;;;;;;;;;;25.87;41.43;92427.09;4950828;28;8780;-62
2023/01/16 05:02:21;;;;;;;;;;;;;;;25.90;41.27;92422.50;4951577;28;9419;-61
2023/01/16 05:04:47;;;;;;;;;;;;;;;25.90;41.73;92422.50;4957603;28;7201;-62
2023/01/16 05:07:13;;;;;;;;;;;;;;;25.88;41.68;92406.53;4933273;28;7315;-62
2023/01/16 05:09:39;;;;;;;;;;;;;;;25.88;41.45;92395.50;4940415;28;7256;-62
2023/01/16 05:12:05;;;;;;;;;;;;;;;25.87;41.34;92388.53;4946054;28;8189;-62
2023/01/16 05:14:56;;;;;;;;;;;;;;;25.89;41.45;92382.47;4943125;28;7296;-62
2023/01/16 05:17:33;;;;;;;;;;;;;;;25.88;41.44;92378.28;4937033;28;7045;-62
2023/01/16 05:20:34;;;;;;;;;;;;;;;25.88;41.70;92364.50;4958103;28;9072;-62
2023/01/16 05:23:05;;;;;;;;;;;;;;;25.88;40.82;92367.97;4989211;28;7407;-61
2023/01/16 05:25:31;;;;;;;;;;;;;;;25.87;41.49;92355.50;4978217;28;7058;-61
2023/01/16 05:27:58;;;;;;;;;;;;;;;25.83;41.49;92335.88;4974440;28;6859;-61
2023/01/16 05:30:27;;;;;;;;;;;;;;;25.90;41.51;92328.88;4956341;28;7173;-61
2023/01/16 05:32:53;;;;;;;;;;;;;;;25.87;41.21;92310.69;4966673;28;7923;-62
2023/01/16 05:35:19;;;;;;;;;;;;;;;25.89;41.44;92317.09;4955764;28;7086;-62
2023/01/16 05:37:46;;;;;;;;;;;;;;;25.89;41.07;92313.63;4989445;28;9488;-63
2023/01/16 05:40:13;;;;;;;;;;;;;;;25.92;44.15;92316.00;4966766;28;7277;-62
2023/01/16 05:42:49;;;;;;;;;;;;;;;25.98;43.42;92302.72;4989928;28;8977;-62
2023/01/16 05:45:15;;;;;;;;;;;;;;;26.02;43.22;92294.06;4974929;28;7051;-62
2023/01/16 05:47:42;;;;;;;;;;;;;;;26.02;42.67;92278.25;4959292;28;7054;-62
2023/01/16 05:50:09;;;;;;;;;;;;;;;26.05;41.66;92273.66;4973921;28;9187;-62
2023/01/16 05:52:35;;;;;;;;;;;;;;;26.02;41.87;92270.00;4984561;28;7652;-62
2023/01/16 05:55:03;;;;;;;;;;;;;;;26.01;42.10;92262.31;4983602;28;7082;-62
2023/01/16 05:57:37;;;;;;;;;;;;;;;25.99;43.53;92253.88;4987259;28;7278;-62
2023/01/16 06:00:05;;;;;;;;;;;;;;;26.04;43.79;92241.88;5007473;28;7484;-62
2023/01/16 06:02:32;;;;;;;;;;;;;;;26.06;42.68;92237.25;5007723;28;9046;-62
2023/01/16 06:04:58;;;;;;;;;;;;;;;26.10;42.08;92236.88;5006784;28;9363;-62
2023/01/16 06:07:30;;;;;;;;;;;;;;;26.08;42.01;92220.94;5005240;28;9059;-62
2023/01/16 06:10:28;;;;;;;;;;;;;;;26.11;42.07;92199.78;5016992;28;7260;-61
2023/01/16 06:12:55;;;;;;;;;;;;;;;26.12;42.58;92184.72;4936806;28;7043;-61
2023/01/16 06:15:25;;;;;;;;;;;;;;;26.13;41.89;92183.41;4944989;28;7327;-61
2023/01/16 06:17:53;;;;;;;;;;;;;;;26.12;42.19;92174.41;4936096;28;8452;-61
2023/01/16 06:20:19;;;;;;;;;;;;;;;26.08;41.02;92167.81;4947617;28;7174;-61
2023/01/16 06:22:45;;;;;;;;;;;;;;;26.06;41.68;92162.88;4938333;28;8210;-61
2023/01/16 06:25:23;;;;;;;;;;;;;;;26.10;41.19;92145.97;4942665;28;7020;-61
2023/01/16 06:28:00;;;;;;;;;;;;;;;26.06;41.96;92135.34;4949790;28;8948;-61
2023/01/16 06:30:38;;;;;;;;;;;;;;;26.10;41.41;92121.91;4935090;28;7184;-62
2023/01/16 06:33:04;;;;;;;;;;;;;;;26.12;41.95;92118.59;4941281;28;7196;-62
2023/01/16 06:35:30;;;;;;;;;;;;;;;26.16;41.05;92100.34;4939994;28;8718;-62
2023/01/16 06:37:56;;;;;;;;;;;;;;;26.15;41.00;92095.41;4929763;29;9119;-62
2023/01/16 06:40:22;;;;;;;;;;;;;;;26.19;40.91;92086.75;4933793;28;7248;-62
2023/01/16 06:42:48;;;;;;;;;;;;;;;26.15;40.73;92082.38;4947283;28;9091;-63
2023/01/16 06:45:32;;;;;;;;;;;;;;;26.17;39.30;92079.78;4948644;28;9485;-62
2023/01/16 06:47:58;;;;;;;;;;;;;;;26.13;39.64;92076.69;4935236;28;9349;-63
2023/01/16 06:50:24;;;;;;;;;;;;;;;26.15;39.64;92082.38;5010163;28;7320;-62
2023/01/16 06:52:50;;;;;;;;;;;;;;;26.13;39.24;92073.94;5011863;28;7382;-62
2023/01/16 06:55:19;;;;;;;;;;;;;;;26.12;39.66;92075.22;4993396;28;8945;-62
2023/01/16 06:57:46;;;;;;;;;;;;;;;26.13;38.97;92070.47;5010209;28;9213;-62
2023/01/16 07:00:26;;;;;;;;;;;;;;;26.16;38.87;92063.81;5017439;28;7062;-62
2023/01/16 07:03:04;;;;;;;;;;;;;;;26.16;38.96;92053.50;5009975;28;9028;-62
2023/01/16 07:05:39;;;;;;;;;;;;;;;26.18;38.79;92047.44;5026777;28;9360;-62
2023/01/16 07:08:08;;;;;;;;;;;;;;;26.19;39.24;92048.19;5001873;28;8896;-62
2023/01/16 07:10:48;;;;;;;;;;;;;;;26.16;39.13;92050.75;5008817;28;8614;-63
2023/01/16 07:13:26;;;;;;;;;;;;;;;26.19;38.71;92042.66;5011861;28;7491;-62
2023/01/16 07:25:02;;;;;;;;;;;;;;;26.24;38.70;92028.63;4927671;29;9779;-62
2023/01/16 07:27:48;;;;;;;;;;;;;;;26.24;38.84;92027.88;4935669;29;9061;-63
2023/01/16 07:30:46;;;;;;;;;;;;;;;26.25;38.69;92013.56;4918316;29;7281;-63
2023/01/16 07:33:51;;;;;;;;;;;;;;;26.26;38.34;92022.53;4934960;29;7164;-62
2023/01/16 07:36:40;;;;;;;;;;;;;;;26.25;38.75;92007.31;4919133;29;9305;-62
2023/01/16 07:39:08;;;;;;;;;;;;;;;26.23;38.48;92009.91;4934036;29;9008;-62
2023/01/16 07:41:34;;;;;;;;;;;;;;;26.22;38.44;92000.91;4919089;29;7632;-62
2023/01/16 07:44:29;;;;;;;;;;;;;;;26.19;38.26;91995.81;4920400;29;9423;-62
2023/01/16 07:46:55;;;;;;;;;;;;;;;26.13;37.80;91980.28;4915268;29;9077;-62
2023/01/16 07:49:21;;;;;;;;;;;;;;;26.19;38.14;91971.72;4919249;29;7132;-62
2023/01/16 07:51:49;;;;;;;;;;;;;;;26.19;38.43;91962.75;4923136;29;7234;-62
2023/01/16 07:54:17;;;;;;;;;;;;;;;26.19;38.34;91946.22;4938257;28;7142;-62
2023/01/16 07:56:49;;;;;;;;;;;;;;;26.21;38.41;91946.38;4958196;28;7195;-62
2023/01/16 07:59:26;;;;;;;;;;;;;;;26.21;38.28;91925.03;4958396;28;7859;-62
2023/01/16 08:02:01;;;;;;;;;;;;;;;26.23;38.50;91910.72;4957240;28;9213;-62
2023/01/16 08:05:10;;;;;;;;;;;;;;;26.22;38.85;91914.75;4958884;28;9099;-62
2023/01/16 08:08:09;;;;;;;;;;;;;;;26.17;38.34;91906.19;4946798;28;7162;-62
2023/01/16 08:10:44;;;;;;;;;;;;;;;26.22;39.09;91914.75;4904985;29;9063;-62
2023/01/16 08:13:11;;;;;;;;;;;;;;;26.22;38.89;91912.00;4910608;29;8281;-62
2023/01/16 08:15:47;;;;;;;;;;;;;;;26.20;38.50;91920.13;4912842;29;9021;-62
2023/01/16 08:18:25;;;;;;;;;;;;;;;26.20;39.39;91920.84;4911246;29;8750;-62
2023/01/16 08:20:52;;;;;;;;;;;;;;;26.22;38.73;91928.53;4903184;29;9286;-61
2023/01/16 08:23:28;;;;;;;;;;;;;;;26.20;38.62;91940.13;4933870;28;7238;-62
2023/01/16 08:29:37;;;;;;;;;;;;;;;26.20;39.34;91920.84;4949909;28;7054;-62
2023/01/16 08:32:03;;;;;;;;;;;;;;;26.20;39.11;91936.66;4935499;28;7030;-62
2023/01/16 08:34:30;;;;;;;;;;;;;;;26.22;39.20;91934.78;4947412;28;7242;-62
2023/01/16 08:36:59;;;;;;;;;;;;;;;26.22;39.14;91928.53;4950621;28;8209;-62
2023/01/16 08:39:46;;;;;;;;;;;;;;;26.22;39.35;91923.03;4909670;29;7567;-62
2023/01/16 08:51:22;;;;;;;;;;;;;;;26.18;39.00;91890.41;4947733;28;7102;-62
2023/01/16 08:53:53;;;;;;;;;;;;;;;26.19;39.53;91872.53;4939033;28;7223;-62
2023/01/16 08:56:23;;;;;;;;;;;;;;;26.16;39.55;91882.69;4938903;28;9305;-63
2023/01/16 08:58:49;;;;;;;;;;;;;;;26.14;38.42;91923.84;4933739;28;7230;-63
2023/01/16 09:01:18;;;;;;;;;;;;;;;26.07;36.34;91943.97;4930147;28;8560;-62
2023/01/16 09:03:45;;;;;;;;;;;;;;;26.01;36.08;91943.47;4931699;28;7263;-62
2023/01/16 09:06:49;;;;;;;;;;;;;;;25.97;33.90;91954.19;4940424;28;7294;-62
2023/01/16 09:09:17;;;;;;;;;;;;;;;25.97;33.94;91953.47;4943999;28;7027;-62
2023/01/16 09:14:28;;;;;;;;;;;;;;;25.95;34.99;91943.03;4942987;28;8834;-62
2023/01/16 09:16:54;;;;;;;;;;;;;;;25.95;33.99;91945.78;4944229;28;9424;-62
2023/01/16 09:19:37;;;;;;;;;;;;;;;25.97;34.07;91942.44;4929062;29;9031;-62
2023/01/16 09:22:22;;;;;;;;;;;;;;;25.97;33.98;91956.94;4946122;28;7095;-62
2023/01/16 09:25:27;;;;;;;;;;;;;;;25.99;34.30;91961.91;4970434;28;9161;-63
2023/01/16 09:27:55;;;;;;;;;;;;;;;25.99;34.49;91962.59;4934211;29;8227;-62
2023/01/16 09:30:28;;;;;;;;;;;;;;;26.02;35.11;91958.72;4936309;28;7224;-62
2023/01/16 09:32:54;;;;;;;;;;;;;;;25.98;34.94;91955.66;4952299;28;7222;-63
2023/01/16 09:35:20;;;;;;;;;;;;;;;26.01;34.66;91960.00;4933635;28;9017;-62
2023/01/16 09:37:48;;;;;;;;;;;;;;;26.02;35.56;91955.97;4950277;28;7624;-62
2023/01/16 09:40:27;;;;;;;;;;;;;;;26.03;35.35;91964.97;4934737;28;8670;-62
2023/01/16 09:46:47;;;;;;;;;;;;;;;26.05;36.00;91959.63;4971536;28;7403;-62
2023/01/16 09:49:28;;;;;;;;;;;;;;;26.04;35.14;91953.38;4933407;29;9034;-62
2023/01/16 10:01:03;;;;;;;;;;;;;;;26.08;35.45;91953.69;4940481;28;7455;-62
2023/01/16 10:03:46;;;;;;;;;;;;;;;26.07;36.58;91941.22;4935563;28;8618;-62
2023/01/16 10:06:34;;;;;;;;;;;;;;;26.07;36.89;91946.00;4945681;28;8950;-62
2023/01/16 10:09:31;;;;;;;;;;;;;;;26.08;36.57;91955.69;4948692;28;7120;-62
2023/01/16 10:12:01;;;;;;;;;;;;;;;26.10;36.44;91947.63;4927405;29;7225;-62
2023/01/16 10:14:50;;;;;;;;;;;;;;;26.06;36.22;91934.25;4933779;28;7042;-62
2023/01/16 10:17:21;;;;;;;;;;;;;;;26.08;36.21;91934.41;4924940;28;9441;-62
2023/01/16 10:20:12;;;;;;;;;;;;;;;26.09;36.36;91921.38;4924922;29;8717;-62
2023/01/16 10:22:55;;;;;;;;;;;;;;;26.09;36.04;91916.59;4950431;28;9316;-63
2023/01/16 10:25:47;;;;;;;;;;;;;;;26.10;36.44;91915.28;4956846;28;7052;-62
2023/01/16 10:28:53;;;;;;;;;;;;;;;26.09;36.88;91905.59;5011548;28;7034;-62
2023/01/16 10:31:40;;;;;;;;;;;;;;;26.11;36.81;91902.25;5008268;28;9510;-62
2023/01/16 10:34:25;;;;;;;;;;;;;;;26.11;36.40;91902.25;5008069;28;9059;-62
2023/01/16 10:37:00;;;;;;;;;;;;;;;26.10;36.34;91893.25;5001011;28;7132;-62
2023/01/16 10:39:36;;;;;;;;;;;;;;;26.11;37.11;91889.22;5001910;28;7035;-62
2023/01/16 10:50:47;;;;;;;;;;;;;;;26.11;37.12;91858.91;5007130;28;9075;-62
2023/01/16 10:53:14;;;;;;;;;;;;;;;26.11;37.27;91874.69;5007508;28;9222;-62
2023/01/16 10:55:51;;;;;;;;;;;;;;;26.10;37.00;91851.94;5006045;28;7247;-62
2023/01/16 10:58:37;;;;;;;;;;;;;;;26.12;37.18;91852.09;5007855;28;7046;-62
2023/01/16 11:01:22;;;;;;;;;;;;;;;26.12;36.68;91835.56;5014924;28;8717;-63
2023/01/16 11:03:53;;;;;;;;;;;;;;;26.14;36.73;91819.16;5007064;28;7151;-62
2023/01/16 11:06:26;;;;;;;;;;;;;;;26.14;37.41;91832.25;5015544;28;9069;-62
2023/01/16 11:09:06;;;;;;;;;;;;;;;26.14;36.56;91821.94;5003110;28;9340;-62
2023/01/16 11:20:12;;;;;;;;;;;;;;;26.08;37.24;91815.22;5013892;28;7052;-63
2023/01/16 11:22:40;;;;;;;;;;;;;;;26.09;37.53;91795.41;5009667;28;7127;-62
2023/01/16 11:25:14;;;;;;;;;;;;;;;26.09;37.74;91798.16;5010993;28;9014;-62
2023/01/16 11:27:44;;;;;;;;;;;;;;;26.09;37.68;91789.16;5011652;28;9501;-62
2023/01/16 11:30:28;;;;;;;;;;;;;;;26.10;38.10;91794.06;5024437;28;7196;-62
2023/01/16 11:32:57;;;;;;;;;;;;;;;26.10;37.99;91787.84;5006706;28;7098;-62
2023/01/16 11:35:37;;;;;;;;;;;;;;;26.11;37.76;91778.28;5020630;28;9190;-62
2023/01/16 11:38:05;;;;;;;;;;;;;;;26.11;37.66;91770.03;5007848;28;7057;-62
2023/01/16 11:40:45;;;;;;;;;;;;;;;26.11;37.78;91800.31;5006735;28;7214;-62
2023/01/16 11:46:54;;;;;;;;;;;;;;;26.10;37.55;91793.34;5010665;28;6986;-62
2023/01/16 11:49:27;;;;;;;;;;;;;;;26.12;37.74;91804.53;4969553;28;7624;-62
2023/01/16 11:52:02;;;;;;;;;;;;;;;26.12;38.04;91813.50;4971112;28;7190;-63
2023/01/16 11:54:34;;;;;;;;;;;;;;;26.10;38.25;91796.84;4970198;28;9950;-62
2023/01/16 11:57:02;;;;;;;;;;;;;;;26.11;38.22;91798.31;4950909;28;7014;-62
2023/01/16 11:59:55;;;;;;;;;;;;;;;26.11;38.38;91798.31;4967612;28;7043;-63
2023/01/16 12:02:24;;;;;;;;;;;;;;;26.11;37.90;91797.56;4961847;28;7122;-63
2023/01/16 12:08:12;;;;;;;;;;;;;;;26.10;37.60;91768.56;4972947;28;7332;-62
2023/01/16 12:11:06;;;;;;;;;;;;;;;26.10;38.29;91750.00;4969938;28;9168;-62
2023/01/16 12:16:46;;;;;;;;;;;;;;;26.10;38.09;91749.28;4971013;28;8224;-62
2023/01/16 12:19:51;;;;;;;;;;;;;;;26.12;37.63;91716.38;4956969;28;9362;-62
2023/01/16 12:22:39;;;;;;;;;;;;;;;26.13;37.53;91684.78;4974188;28;8124;-62
2023/01/16 12:25:29;;;;;;;;;;;;;;;26.08;37.39;91672.72;4971032;28;8717;-62
2023/01/16 12:28:24;;;;;;;;;;;;;;;26.12;37.55;91683.34;5011435;28;7232;-62
2023/01/16 12:34:41;;;;;;;;;;;;;;;26.14;37.96;91684.19;5008759;28;7055;-62
2023/01/16 12:37:43;;;;;;;;;;;;;;;26.13;38.25;91668.25;5023054;28;7979;-62
2023/01/16 12:43:17;;;;;;;;;;;;;;;26.13;38.59;91673.75;5013466;28;8965;-62
2023/01/16 12:44:00;;;;;;;;;;;;;;;26.13;38.12;91676.50;5004463;28;7831;-62
2023/01/16 12:46:32;;;;;;;;;;;;;;;26.15;37.67;91673.91;5008522;28;7026;-62
2023/01/16 12:49:37;;;;;;;;;;;;;;;26.18;38.19;91664.47;5010698;28;7345;-63
2023/01/16 12:52:22;;;;;;;;;;;;;;;26.19;38.41;91654.19;4937284;28;7922;-62
2023/01/16 12:55:19;;;;;;;;;;;;;;;26.17;37.65;91641.72;4944378;28;8545;-62
2023/01/16 12:58:11;;;;;;;;;;;;;;;26.16;37.80;91643.00;4948619;28;9021;-62
2023/01/16 13:00:45;;;;;;;;;;;;;;;26.16;38.10;91626.47;4931656;28;8311;-62
2023/01/16 13:03:34;;;;;;;;;;;;;;;26.21;37.61;91619.22;4939247;28;8722;-62
2023/01/16 13:06:03;;;;;;;;;;;;;;;26.23;38.46;91596.63;4944671;28;7029;-62
2023/01/16 13:08:39;;;;;;;;;;;;;;;26.25;37.58;91578.22;4950250;28;7485;-62
2023/01/16 13:14:10;;;;;;;;;;;;;;;26.26;38.40;91570.66;4943758;28;8225;-62
2023/01/16 13:16:59;;;;;;;;;;;;;;;26.25;38.27;91558.19;4951477;28;8021;-62
2023/01/16 13:19:32;;;;;;;;;;;;;;;26.27;38.21;91581.09;4926124;28;7309;-62
2023/01/16 13:22:12;;;;;;;;;;;;;;;26.25;37.78;91569.22;4944607;28;9370;-62
2023/01/16 13:25:02;;;;;;;;;;;;;;;26.24;37.56;91562.25;4936964;28;7043;-62
2023/01/16 13:27:42;;;;;;;;;;;;;;;26.23;38.31;91547.03;4925242;28;9165;-62
2023/01/16 13:30:17;;;;;;;;;;;;;;;26.22;37.80;91549.06;5016689;28;7050;-62
2023/01/16 13:32:55;;;;;;;;;;;;;;;26.22;37.78;91542.81;5013825;28;7237;-62
2023/01/16 13:35:33;;;;;;;;;;;;;;;26.22;38.44;91545.56;5002430;28;7107;-62
2023/01/16 13:38:36;;;;;;;;;;;;;;;26.22;37.62;91540.06;5005332;28;9355;-62
2023/01/16 13:41:23;;;;;;;;;;;;;;;26.18;38.16;91537.75;5021465;28;7038;-62
2023/01/16 13:47:17;;;;;;;;;;;;;;;26.18;37.85;91529.50;5004814;28;8714;-62
2023/01/16 13:49:51;;;;;;;;;;;;;;;26.21;37.64;91535.88;5014997;28;7089;-62
2023/01/16 13:52:28;;;;;;;;;;;;;;;26.21;38.58;91546.88;5009816;28;7048;-62
2023/01/16 13:55:06;;;;;;;;;;;;;;;26.20;38.00;91561.97;5009362;28;7040;-63
2023/01/16 13:57:33;;;;;;;;;;;;;;;26.20;38.01;91561.97;5026232;28;9110;-63
2023/01/16 14:00:11;;;;;;;;;;;;;;;26.23;38.18;91594.56;5007838;28;7313;-62
2023/01/16 14:02:43;;;;;;;;;;;;;;;26.25;37.80;91571.97;5016624;28;9197;-63
2023/01/16 14:05:48;;;;;;;;;;;;;;;26.23;37.76;91593.88;5012683;28;7054;-63
2023/01/16 14:11:27;;;;;;;;;;;;;;;26.25;38.45;91569.22;5019040;28;9346;-63
2023/01/16 14:16:30;;;;;;;;;;;;;;;26.26;37.66;91562.38;5028589;28;8991;-63
2023/01/16 14:17:08;;;;;;;;;;;;;;;26.25;37.77;91582.97;5008386;28;9122;-63
2023/01/16 14:19:49;;;;;;;;;;;;;;;26.25;37.98;91572.69;5017707;28;8835;-63
2023/01/16 14:24:57;;;;;;;;;;;;;;;26.24;38.27;91573.25;5016923;28;9221;-63
2023/01/16 14:27:34;;;;;;;;;;;;;;;26.24;38.50;91557.47;4999828;28;7274;-63
2023/01/16 14:30:07;;;;;;;;;;;;;;;26.25;38.34;91536.16;5006663;28;7017;-63
2023/01/16 14:32:44;;;;;;;;;;;;;;;26.25;38.14;91536.16;5007866;28;9089;-63
2023/01/16 14:35:25;;;;;;;;;;;;;;;26.24;38.30;91532.66;5007886;28;7105;-62
2023/01/16 14:38:02;;;;;;;;;;;;;;;26.25;38.16;91530.63;5012138;28;7178;-63
2023/01/16 14:55:48;;;;;;;;;;;;;;;26.19;39.40;91499.91;5004103;28;7275;-62
2023/01/16 14:58:30;;;;;;;;;;;;;;;26.22;39.11;91510.47;5005941;28;8925;-62
2023/01/16 15:03:48;;;;;;;;;;;;;;;26.20;39.04;91507.59;5004632;28;9398;-62
2023/01/16 15:06:20;;;;;;;;;;;;;;;26.19;38.74;91508.88;5004578;28;9137;-62
2023/01/16 15:08:47;;;;;;;;;;;;;;;26.16;38.84;91512.81;5018961;28;9428;-62
2023/01/16 15:11:31;;;;;;;;;;;;;;;26.16;39.32;91513.53;5007217;28;7184;-62
2023/01/16 15:14:32;;;;;;;;;;;;;;;26.14;38.82;91518.19;5023780;28;7280;-62
2023/01/16 15:23:18;;;;;;;;;;;;;;;26.20;39.51;91539.91;5005296;28;9256;-62
2023/01/16 15:26:05;;;;;;;;;;;;;;;26.25;38.79;91541.66;5026722;28;7526;-62
2023/01/16 15:29:10;;;;;;;;;;;;;;;26.23;39.06;91547.03;5014228;28;7242;-62
2023/01/16 15:32:10;;;;;;;;;;;;;;;26.22;38.88;91549.06;4949836;29;8997;-62
2023/01/16 15:34:36;;;;;;;;;;;;;;;26.23;39.26;91544.28;4910717;29;7368;-62
2023/01/16 15:37:21;;;;;;;;;;;;;;;26.23;39.09;91547.03;4925633;29;7421;-62
2023/01/16 15:39:48;;;;;;;;;;;;;;;26.21;39.15;91555.16;4933639;29;9372;-62
2023/01/16 15:48:35;;;;;;;;;;;;;;;26.20;39.86;91565.44;4922994;29;7085;-62
2023/01/16 15:51:15;;;;;;;;;;;;;;;26.19;39.33;91575.00;4920526;29;7073;-62